Latest Weather Observations for Tewantin

IDQ60901

Issued at 5:35 pm EST Sunday 26 October 2014 (issued every 10 minutes, with the page automatically refreshed every 10 minutes)

About weather observations | Map of Brisbane area stations | Latest observations for Brisbane area | Other Formats
Station Details ID: 040908 Name: TEWANTIN RSL PARK Lat: -26.39 Lon: 153.04 Height: 6.4 m
Data from the previous 72 hours. | See also: Recent months at Tewantin
Date/Time
EST
Tmp

°C
App
Tmp
°C
Dew
Point
°C
Rel
Hum
%
Delta-T

°C
Wind Press
QNH
hPa
Press
MSL
hPa
Rain
since
9 am
mm
Dir
 
Spd
km/h
Gust
km/h
Spd
kts
Gust
kts
26/05:30pm 24.0 24.2 20.5 81 2.3 NNE 20 26 11 14 1012.2 1012.2 0.0
26/05:00pm 24.2 23.3 19.9 77 2.8 NNE 24 32 13 17 1011.8 1011.8 0.0
26/04:30pm 24.4 23.5 19.9 76 2.9 NNE 24 33 13 18 1011.7 1011.7 0.0
26/04:00pm 24.8 23.7 20.3 76 2.9 NNE 26 43 14 23 1011.8 1011.8 0.0
26/03:30pm 24.8 23.0 19.6 73 3.3 NNE 28 41 15 22 1011.9 1011.9 0.0
26/03:00pm 25.2 24.1 20.2 74 3.3 NNE 26 39 14 21 1012.0 1012.0 0.0
26/02:30pm 25.5 24.5 19.6 70 3.8 NNE 24 37 13 20 1012.2 1012.2 0.0
26/02:00pm 25.8 24.3 19.4 67 4.1 NNE 26 39 14 21 1012.8 1012.8 0.0
26/01:30pm 25.5 23.4 18.9 67 4.2 NNE 28 39 15 21 1013.4 1013.4 0.0
26/01:00pm 25.3 22.5 19.0 68 4.0 NNE 32 44 17 24 1013.7 1013.7 0.0
26/12:30pm 25.6 22.9 19.3 68 4.0 NNE 32 43 17 23 1014.1 1014.1 0.0
26/12:00pm 25.6 24.6 19.7 70 3.8 NE 24 32 13 17 1014.5 1014.5 0.0
26/11:30am 25.5 24.8 19.4 69 3.9 NNE 22 37 12 20 1015.1 1015.1 0.0
26/11:00am 26.7 27.1 19.8 66 4.5 NE 17 24 9 13 1015.5 1015.5 0.0
26/10:30am 27.4 26.9 17.8 55 6.1 N 17 26 9 14 1016.1 1016.1 0.0
26/10:00am 26.4 25.8 17.5 58 5.6 N 17 22 9 12 1016.5 1016.5 0.0
26/09:30am 25.9 25.3 17.5 59 5.3 N 17 24 9 13 1016.9 1016.9 0.0
26/09:00am 25.0 24.2 17.2 62 4.8 N 17 24 9 13 1017.2 1017.2 0.0
26/08:30am 24.9 25.1 17.6 64 4.6 NNW 13 22 7 12 1017.3 1017.3 0.0
26/08:00am 23.8 23.9 17.5 68 3.9 NNW 13 26 7 14 1017.5 1017.5 0.0
26/07:30am 22.8 22.3 17.9 74 3.1 N 17 22 9 12 1017.5 1017.5 0.0
26/07:00am 21.7 22.2 17.5 77 2.6 N 11 19 6 10 1017.4 1017.4 0.0
26/06:30am 20.7 22.1 17.3 81 2.1 NNW 6 11 3 6 1017.3 1017.3 0.0
26/06:00am 19.2 20.2 16.8 86 1.4 WNW 7 13 4 7 1017.2 1017.2 0.0
26/05:30am 18.4 19.4 16.9 91 0.9 NNW 7 11 4 6 1017.1 1017.1 0.0
26/05:00am 17.7 18.2 16.6 93 0.7 NW 9 13 5 7 1016.6 1016.6 0.0
26/04:30am 17.7 18.4 16.2 91 0.9 NW 7 11 4 6 1016.9 1016.9 0.0
26/04:00am 17.8 18.9 16.7 93 0.7 NNW 6 7 3 4 1016.9 1016.9 0.0
26/03:30am 18.0 18.6 16.9 93 0.7 NNW 9 11 5 6 1016.7 1016.7 0.0
26/03:00am 18.5 20.9 17.0 91 0.9 CALM 0 0 0 0 1017.1 1017.1 0.0
26/02:30am 18.7 20.3 17.0 90 1.0 NNW 4 9 2 5 1017.1 1017.1 0.0
26/02:00am 18.8 21.2 16.9 89 1.1 CALM 0 0 0 0 1017.5 1017.5 0.0
26/01:30am 18.8 21.0 16.4 86 1.4 CALM 0 0 0 0 1017.8 1017.8 0.0
26/01:00am 19.1 20.2 16.7 86 1.4 N 6 7 3 4 1017.6 1017.6 0.0
26/12:30am 19.7 20.7 16.9 84 1.7 N 7 11 4 6 1017.8 1017.8 0.0
26/12:00am 20.0 19.8 16.6 81 2.0 N 13 17 7 9 1017.6 1017.6 0.0
 
Date/Time
EST
Tmp

°C
App
Tmp
°C
Dew
Point
°C
Rel
Hum
%
Delta-T

°C
Wind Press
QNH
hPa
Press
MSL
hPa
Rain
since
9 am
mm
Dir
 
Spd
km/h
Gust
km/h
Spd
kts
Gust
kts
25/11:30pm 19.9 20.0 16.5 81 2.0 NNW 11 17 6 9 1017.8 1017.8 0.0
25/11:00pm 20.1 20.5 16.3 79 2.3 NNW 9 17 5 9 1017.8 1017.8 0.0
25/10:30pm 20.3 19.9 16.1 77 2.5 NNW 13 20 7 11 1017.8 1017.8 0.0
25/10:00pm 20.6 19.8 16.2 76 2.6 N 15 20 8 11 1017.8 1017.8 0.0
25/09:30pm 21.0 20.1 15.8 72 3.1 NNW 15 24 8 13 1017.8 1017.8 0.0
25/09:00pm 21.3 20.3 15.6 70 3.4 NNW 15 22 8 12 1017.7 1017.7 0.0
25/08:30pm 21.8 20.5 15.9 69 3.5 NNW 17 28 9 15 1017.8 1017.8 0.0
25/08:00pm 22.0 21.4 16.7 72 3.2 N 15 22 8 12 1017.5 1017.5 0.0
25/07:30pm 22.3 21.8 17.7 75 2.9 N 17 24 9 13 1017.2 1017.2 0.0
25/07:00pm 22.3 22.0 17.4 74 3.0 N 15 22 8 12 1016.8 1016.8 0.0
25/06:30pm 22.8 22.0 17.0 70 3.6 N 17 22 9 12 1016.4 1016.4 0.0
25/06:00pm 22.7 22.8 18.3 76 2.8 N 15 20 8 11 1015.9 1015.9 0.0
25/05:30pm 23.1 22.5 18.4 75 3.0 N 19 28 10 15 1015.8 1015.8 0.0
25/05:00pm 23.3 21.9 18.0 72 3.3 N 22 32 12 17 1015.5 1015.5 0.0
25/04:30pm 23.5 21.2 17.7 70 3.6 NNE 26 37 14 20 1015.5 1015.5 0.0
25/04:00pm 23.6 20.6 17.8 70 3.6 NNE 30 43 16 23 1015.7 1015.7 0.0
25/03:30pm 23.9 21.6 17.6 68 3.9 NNE 26 41 14 22 1016.0 1016.0 0.0
25/03:00pm 24.2 21.8 18.2 69 3.8 NNE 28 43 15 23 1016.0 1016.0 0.0
25/02:30pm 24.0 21.9 18.0 69 3.8 NNE 26 41 14 22 1016.3 1016.3 0.0
25/02:00pm 23.7 20.6 17.4 68 3.9 NNE 30 41 16 22 1016.8 1016.8 0.0
25/01:45pm 23.9 21.1 17.2 66 4.1 NNE 28 46 15 25 1017.0 1017.0 0.0
25/01:30pm 24.0 21.7 17.7 68 3.9 NNE 26 35 14 19 1017.1 1017.1 0.0
25/01:00pm 24.0 21.1 17.0 65 4.3 NNE 28 37 15 20 1017.5 1017.5 0.0
25/12:30pm 24.2 21.9 17.7 67 4.1 NNE 26 35 14 19 1018.0 1018.0 0.0
25/12:00pm 24.5 22.3 17.0 63 4.6 NNE 24 32 13 17 1018.5 1018.5 0.0
25/11:30am 25.0 23.6 17.0 61 5.0 NNE 20 26 11 14 1019.0 1019.0 0.0
25/11:00am 25.9 24.8 15.3 52 6.4 N 15 24 8 13 1019.5 1019.5 0.0
25/10:30am 25.1 23.8 14.8 52 6.2 N 15 26 8 14 1020.1 1020.1 0.0
25/10:00am 24.5 23.6 14.9 55 5.7 N 13 20 7 11 1020.6 1020.6 0.0
25/09:30am 24.2 23.2 14.6 55 5.7 N 13 20 7 11 1021.1 1021.1 0.0
25/09:00am 23.4 22.1 14.9 59 5.0 N 15 20 8 11 1021.5 1021.5 0.0
25/08:30am 23.2 22.4 15.0 60 4.9 NNW 13 19 7 10 1021.7 1021.7 0.0
25/08:00am 21.9 20.8 14.3 62 4.4 NNW 13 22 7 12 1021.7 1021.7 0.0
25/07:30am 20.9 20.9 14.3 66 3.8 NNW 7 13 4 7 1021.7 1021.7 0.0
25/07:00am 19.8 19.7 14.0 69 3.3 NW 7 13 4 7 1021.5 1021.5 0.0
25/06:30am 18.4 18.4 14.3 77 2.4 NW 7 11 4 6 1021.2 1021.2 0.0
25/06:00am 17.0 17.5 14.1 83 1.6 NW 4 7 2 4 1021.1 1021.1 0.0
25/05:30am 15.5 16.8 14.0 91 0.8 CALM 0 0 0 0 1020.7 1020.7 0.0
25/05:00am 15.1 16.3 13.8 92 0.7 CALM 0 0 0 0 1020.5 1020.5 0.0
25/04:30am 15.3 16.3 13.3 88 1.1 CALM 0 6 0 3 1020.2 1020.2 0.0
25/04:00am 15.7 16.9 13.7 88 1.1 CALM 0 0 0 0 1019.9 1019.9 0.0
25/03:30am 16.1 16.0 13.4 84 1.5 NW 6 9 3 5 1019.3 1019.3 0.0
25/03:00am 16.2 15.6 13.5 84 1.5 NW 9 13 5 7 1019.1 1019.1 0.0
25/02:30am 16.1 16.2 13.8 86 1.3 NW 6 9 3 5 1019.3 1019.3 0.0
25/02:00am 15.8 16.4 14.2 90 0.9 N 4 6 2 3 1019.5 1019.5 0.0
25/01:30am 16.0 17.2 13.7 86 1.3 CALM 0 0 0 0 1019.9 1019.9 0.0
25/01:00am 16.3 17.7 14.5 89 1.0 CALM 0 0 0 0 1020.2 1020.2 0.0
25/12:30am 16.5 17.9 14.5 88 1.1 CALM 0 0 0 0 1020.7 1020.7 0.0
25/12:00am 16.7 17.9 13.8 83 1.6 CALM 0 0 0 0 1021.4 1021.4 0.0
 
Date/Time
EST
Tmp

°C
App
Tmp
°C
Dew
Point
°C
Rel
Hum
%
Delta-T

°C
Wind Press
QNH
hPa
Press
MSL
hPa
Rain
since
9 am
mm
Dir
 
Spd
km/h
Gust
km/h
Spd
kts
Gust
kts
24/11:30pm 17.0 18.2 13.9 82 1.8 CALM 0 0 0 0 1021.8 1021.8 0.0
24/11:00pm 17.1 18.2 13.4 79 2.1 CALM 0 2 0 1 1021.9 1021.9 0.0
24/10:30pm 17.2 18.2 13.3 78 2.2 CALM 0 6 0 3 1022.2 1022.2 0.0
24/10:00pm 18.2 18.2 13.5 74 2.7 W 6 9 3 5 1022.3 1022.3 0.0
24/09:30pm 18.0 18.4 13.7 76 2.4 NW 4 7 2 4 1022.3 1022.3 0.0
24/09:00pm 18.2 18.9 13.5 74 2.7 WNW 2 6 1 3 1022.7 1022.7 0.0
24/08:30pm 18.8 18.7 13.4 71 3.1 NW 6 7 3 4 1022.5 1022.5 0.0
24/08:00pm 20.1 20.0 13.8 67 3.6 N 7 9 4 5 1022.4 1022.4 0.0
24/07:30pm 20.6 20.3 14.3 67 3.7 N 9 17 5 9 1022.1 1022.1 0.0
24/07:00pm 20.6 19.9 14.3 67 3.7 N 11 15 6 8 1021.7 1021.7 0.0
24/06:30pm 20.7 19.9 14.1 66 3.8 N 11 15 6 8 1021.4 1021.4 0.0
24/06:00pm 21.1 20.0 14.3 65 4.0 NNE 13 19 7 10 1021.2 1021.2 0.0
24/05:30pm 21.5 20.5 14.6 65 4.0 NNE 13 20 7 11 1021.0 1021.0 0.0
24/05:00pm 21.9 20.5 15.5 67 3.8 NNE 17 26 9 14 1020.7 1020.7 0.0
24/04:30pm 22.3 20.7 14.9 63 4.4 NNE 17 26 9 14 1020.5 1020.5 0.0
24/04:00pm 22.6 20.9 14.7 61 4.7 NE 17 24 9 13 1020.2 1020.2 0.0
24/03:30pm 22.8 20.8 14.9 61 4.7 NNE 19 30 10 16 1020.1 1020.1 0.0
24/03:00pm 22.6 20.1 13.4 56 5.3 ENE 19 30 10 16 1020.2 1020.2 0.0
24/02:30pm 22.8 20.6 14.4 59 4.9 NE 19 32 10 17 1020.2 1020.2 0.0
24/02:00pm 23.1 21.1 14.9 60 4.9 NNE 19 28 10 15 1020.4 1020.4 0.0
24/01:30pm 23.5 21.8 15.8 62 4.6 NE 19 26 10 14 1020.6 1020.6 0.0
24/01:00pm 23.6 22.0 14.9 58 5.2 NE 17 28 9 15 1021.0 1021.0 0.0
24/12:30pm 23.6 22.1 15.4 60 4.9 NE 17 30 9 16 1021.3 1021.3 0.0
24/12:00pm 23.5 21.8 14.8 58 5.2 NNE 17 24 9 13 1021.7 1021.7 0.0
24/11:30am 23.8 22.5 14.8 57 5.4 NE 15 22 8 12 1021.9 1021.9 0.0
24/11:00am 23.6 22.6 14.6 57 5.3 NNE 13 20 7 11 1022.1 1022.1 0.0
24/10:30am 23.4 22.8 14.7 58 5.2 NNE 11 19 6 10 1022.4 1022.4 0.0
24/10:00am 23.2 23.6 15.3 61 4.7 NE 7 15 4 8 1022.8 1022.8 0.0
24/09:30am 22.9 23.3 13.7 56 5.4 SE 4 7 2 4 1023.1 1023.1 0.0
24/09:00am 22.1 22.1 13.7 59 4.8 N 6 11 3 6 1023.2 1023.2 0.0
24/08:30am 21.9 22.9 13.3 58 4.9 CALM 0 0 0 0 1023.2 1023.2 0.0
24/08:00am 21.5 22.3 13.7 61 4.5 NNE 2 7 1 4 1023.0 1023.0 0.0
24/07:30am 21.5 22.9 14.4 64 4.2 CALM 0 6 0 3 1022.6 1022.6 0.0
24/07:00am 20.6 21.9 14.0 66 3.8 CALM 0 6 0 3 1022.4 1022.4 0.0
24/06:30am 18.6 19.7 13.5 72 2.9 CALM 0 0 0 0 1022.3 1022.3 0.0
24/06:00am 17.6 19.2 14.9 84 1.6 CALM 0 0 0 0 1022.1 1022.1 0.0
24/05:30am 16.3 17.6 14.1 87 1.2 CALM 0 0 0 0 1021.9 1021.9 0.0
24/05:00am 15.8 17.2 14.5 92 0.7 CALM 0 0 0 0 1021.7 1021.7 0.0
24/04:30am 15.2 16.3 13.6 90 0.9 CALM 0 0 0 0 1021.1 1021.1 0.0
24/04:00am 15.4 16.7 14.1 92 0.7 CALM 0 0 0 0 1020.9 1020.9 0.0
24/03:30am 15.2 16.4 13.7 91 0.8 CALM 0 0 0 0 1020.6 1020.6 0.0
24/03:00am 15.4 16.5 13.6 89 1.0 CALM 0 0 0 0 1020.7 1020.7 0.0
24/02:30am 15.2 16.3 13.4 89 1.0 CALM 0 0 0 0 1020.8 1020.8 0.0
24/02:00am 15.5 16.4 14.0 91 0.8 N 2 6 1 3 1020.8 1020.8 0.0
24/01:30am 15.8 16.9 13.6 87 1.2 CALM 0 0 0 0 1021.0 1021.0 0.0
24/01:00am 16.0 17.2 13.8 87 1.2 CALM 0 0 0 0 1021.0 1021.0 0.0
24/12:30am 16.2 17.6 14.4 89 1.0 CALM 0 6 0 3 1021.6 1021.6 0.0
24/12:00am 16.1 17.3 13.8 86 1.3 CALM 0 0 0 0 1021.5 1021.5 0.0
 
Date/Time
EST
Tmp

°C
App
Tmp
°C
Dew
Point
°C
Rel
Hum
%
Delta-T

°C
Wind Press
QNH
hPa
Press
MSL
hPa
Rain
since
9 am
mm
Dir
 
Spd
km/h
Gust
km/h
Spd
kts
Gust
kts
23/11:30pm 16.5 17.9 14.3 87 1.3 CALM 0 0 0 0 1021.7 1021.7 0.0
23/11:00pm 16.5 16.9 13.8 84 1.5 SW 4 7 2 4 1022.0 1022.0 0.0
23/10:30pm 17.1 18.4 14.0 82 1.8 CALM 0 0 0 0 1021.9 1021.9 0.0
23/10:00pm 17.5 18.6 13.6 78 2.2 CALM 0 6 0 3 1021.9 1021.9 0.0
23/09:30pm 17.9 17.9 13.6 76 2.4 WSW 6 7 3 4 1021.6 1021.6 0.0
23/09:00pm 19.3 19.4 13.9 71 3.1 N 6 7 3 4 1021.4 1021.4 0.0
23/08:30pm 19.4 19.4 14.2 72 3.0 N 7 11 4 6 1021.2 1021.2 0.0
23/08:00pm 19.3 19.2 13.9 71 3.1 N 7 11 4 6 1020.8 1020.8 0.0
23/07:30pm 19.4 19.4 14.2 72 3.0 NNE 7 9 4 5 1020.6 1020.6 0.0
23/07:00pm 19.6 19.7 13.8 69 3.3 NE 6 7 3 4 1020.4 1020.4 0.0
23/06:30pm 20.1 20.2 13.8 67 3.6 NNE 6 11 3 6 1019.9 1019.9 0.0
23/06:00pm 20.6 19.8 14.0 66 3.8 NNE 11 17 6 9 1019.3 1019.3 0.0

Latest Capital City Observations: Canberra | Sydney | Melbourne | Brisbane | Adelaide | Perth | Hobart | Darwin

Other Formats:

Comma delimited format used in spreadsheet applications
http://www.bom.gov.au/fwo/IDQ60901/IDQ60901.94570.axf

JavaScript Object Notation format (JSON) in row-major order
http://www.bom.gov.au/fwo/IDQ60901/IDQ60901.94570.json